Time;durP1;ratioP1;P1;durP2;ratioP2;P2;SDS_P1;SDS_P2;PMS_P1;PMS_P2;Temp;Humidity;BMP_temperature;BMP_pressure;BME280_temperature;BME280_humidity;BME280_pressure;Samples;Min_cycle;Max_cycle;Signal;HPM_P1;HPM_P2
2023/05/26 00:01:46;;;;;;;11.23;6.38;;;;;;;15.84;55.16;101390.16;4109577;28;20038;-65
2023/05/26 00:03:50;;;;;;;14.73;7.45;;;;;;;15.84;55.25;101383.19;4107971;28;20035;-65
2023/05/26 00:05:54;;;;;;;12.75;7.15;;;;;;;15.91;54.80;101389.34;4110134;28;20062;-65
2023/05/26 00:07:57;;;;;;;13.32;7.40;;;;;;;15.80;55.38;101388.38;4110332;28;20474;-65
2023/05/26 00:10:00;;;;;;;14.65;7.55;;;;;;;15.80;55.14;101384.03;4110332;28;20042;-65
2023/05/26 00:12:05;;;;;;;11.18;7.13;;;;;;;15.73;55.27;101397.06;4109936;28;20050;-65
2023/05/26 00:14:10;;;;;;;11.30;7.43;;;;;;;15.74;54.92;101390.94;4108630;28;20047;-65
2023/05/26 00:16:12;;;;;;;16.08;7.93;;;;;;;15.65;54.97;101400.50;4111356;28;20047;-65
2023/05/26 00:18:16;;;;;;;12.57;7.40;;;;;;;15.60;55.18;101389.06;4111133;28;20039;-65
2023/05/26 00:20:19;;;;;;;13.07;7.70;;;;;;;15.62;55.28;101392.56;4106593;28;20043;-66
2023/05/26 00:22:22;;;;;;;11.77;6.97;;;;;;;15.61;55.64;101393.47;4114189;28;20497;-65
2023/05/26 00:24:24;;;;;;;14.90;8.18;;;;;;;15.61;55.69;101387.31;4114130;28;20511;-65
2023/05/26 00:26:27;;;;;;;13.25;6.63;;;;;;;15.63;55.99;101396.97;4109296;28;21259;-65
2023/05/26 00:28:32;;;;;;;12.68;7.50;;;;;;;15.57;55.70;101386.44;4114143;28;20138;-65
2023/05/26 00:30:35;;;;;;;12.75;7.40;;;;;;;15.56;55.70;101389.91;4113730;28;20039;-65
2023/05/26 00:32:37;;;;;;;13.63;7.93;;;;;;;15.53;56.01;101387.25;4107868;28;20450;-65
2023/05/26 00:34:40;;;;;;;18.23;8.45;;;;;;;15.55;56.00;101390.78;4110910;28;20500;-65
2023/05/26 00:36:43;;;;;;;16.02;8.52;;;;;;;15.49;55.39;101398.56;4128388;28;20038;-65
2023/05/26 00:38:46;;;;;;;16.25;8.70;;;;;;;15.46;55.47;101401.19;4127070;28;20034;-65
2023/05/26 00:40:50;;;;;;;12.30;7.60;;;;;;;15.42;56.35;101387.19;4108754;28;20117;-65
2023/05/26 00:42:53;;;;;;;17.70;7.38;;;;;;;15.34;56.27;101391.47;4114079;28;20038;-65
2023/05/26 00:44:57;;;;;;;15.38;8.48;;;;;;;15.34;56.84;101394.09;4114424;28;20126;-65
2023/05/26 00:47:00;;;;;;;10.35;7.10;;;;;;;15.31;56.30;101394.06;4113872;28;20465;-65
2023/05/26 00:49:04;;;;;;;13.63;7.13;;;;;;;15.30;56.16;101398.44;4114115;28;20126;-65
2023/05/26 00:51:08;;;;;;;11.68;7.45;;;;;;;15.36;55.88;101398.47;4114863;28;20035;-65
2023/05/26 00:53:11;;;;;;;16.20;8.00;;;;;;;15.26;56.04;101401.88;4109508;28;20062;-65
2023/05/26 00:55:15;;;;;;;14.00;7.20;;;;;;;15.20;56.52;101401.81;4113508;28;20109;-65
2023/05/26 00:57:18;;;;;;;13.25;8.30;;;;;;;15.21;56.58;101398.31;4127757;28;20159;-65
2023/05/26 00:59:22;;;;;;;12.75;7.53;;;;;;;15.19;56.66;101400.06;4110629;28;20449;-65
2023/05/26 01:01:26;;;;;;;19.83;8.20;;;;;;;15.09;56.29;101395.59;4111757;28;20031;-65
2023/05/26 01:03:30;;;;;;;17.63;8.15;;;;;;;15.12;56.40;101393.84;4114456;28;20485;-65
2023/05/26 01:05:33;;;;;;;12.00;7.22;;;;;;;15.04;57.41;101392.03;4113553;28;20039;-65
2023/05/26 01:07:36;;;;;;;13.82;7.93;;;;;;;15.05;56.88;101393.78;4120712;28;20042;-65
2023/05/26 01:09:40;;;;;;;15.45;8.23;;;;;;;14.95;57.16;101391.06;4114615;28;20138;-65
2023/05/26 01:11:47;;;;;;;12.68;7.82;;;;;;;14.94;57.32;101399.78;4112491;28;20041;-65
2023/05/26 01:13:54;;;;;;;13.38;7.88;;;;;;;14.91;57.00;101388.38;4113205;28;20043;-65
2023/05/26 01:16:02;;;;;;;14.60;8.70;;;;;;;14.82;57.62;101389.16;4116891;28;20045;-65
2023/05/26 01:18:10;;;;;;;12.25;7.38;;;;;;;14.78;57.74;101392.63;4123795;28;20039;-65
2023/05/26 01:20:27;;;;;;;11.85;7.85;;;;;;;14.75;57.93;101401.31;4112672;28;20054;-65
2023/05/26 01:22:43;;;;;;;12.80;7.43;;;;;;;14.79;57.63;101394.34;4110869;28;20039;-65
2023/05/26 01:24:55;;;;;;;14.02;7.80;;;;;;;14.76;57.24;101402.19;4089042;29;20510;-65
2023/05/26 01:27:04;;;;;;;13.48;8.15;;;;;;;14.70;57.20;101391.63;4113911;28;20449;-65
2023/05/26 01:29:12;;;;;;;13.77;7.70;;;;;;;14.70;58.10;101394.25;4109913;28;20119;-65
2023/05/26 01:31:15;;;;;;;15.10;8.98;;;;;;;14.78;57.38;101401.34;4117723;28;20042;-65
2023/05/26 01:33:18;;;;;;;15.82;8.90;;;;;;;14.74;57.32;101396.06;4112901;28;20039;-65
2023/05/26 01:35:21;;;;;;;13.95;8.10;;;;;;;14.60;57.69;101401.97;4115241;28;20058;-65
2023/05/26 01:37:24;;;;;;;12.07;7.22;;;;;;;14.58;57.82;101398.44;4121455;28;20147;-64
2023/05/26 01:39:27;;;;;;;12.05;7.70;;;;;;;14.51;58.21;101398.34;4112500;28;20530;-65
2023/05/26 01:41:39;;;;;;;12.15;6.88;;;;;;;14.44;58.87;101390.44;4095728;29;20035;-65
2023/05/26 01:43:52;;;;;;;15.98;7.78;;;;;;;14.55;58.37;101393.16;4126312;28;20049;-65
2023/05/26 01:46:02;;;;;;;11.13;7.88;;;;;;;14.45;58.77;101394.78;4105910;28;20508;-65
2023/05/26 01:48:09;;;;;;;11.48;7.63;;;;;;;14.38;58.77;101394.69;4126424;28;20117;-65
2023/05/26 01:50:13;;;;;;;14.95;7.93;;;;;;;14.39;58.83;101389.47;4113823;28;20539;-65
2023/05/26 01:52:19;;;;;;;15.07;8.35;;;;;;;14.33;58.81;101394.63;4112934;28;20515;-65
2023/05/26 01:54:25;;;;;;;12.23;7.30;;;;;;;14.33;59.04;101386.78;4111402;28;20097;-65
2023/05/26 01:56:32;;;;;;;13.95;8.00;;;;;;;14.41;58.49;101399.94;4118844;28;20043;-67
2023/05/26 01:58:36;;;;;;;13.88;7.47;;;;;;;14.37;58.61;101396.44;4117647;28;20041;-65
2023/05/26 02:00:47;;;;;;;14.68;8.63;;;;;;;14.30;59.54;101395.47;4113038;28;20065;-65
2023/05/26 02:02:51;;;;;;;16.80;8.88;;;;;;;14.32;59.17;101399.00;4121613;28;20038;-65
2023/05/26 02:04:54;;;;;;;15.93;9.13;;;;;;;14.30;58.41;101395.47;4110509;28;20066;-65
2023/05/26 02:06:57;;;;;;;17.58;8.45;;;;;;;14.21;59.43;101392.72;4126985;28;20072;-65
2023/05/26 02:09:00;;;;;;;15.20;8.25;;;;;;;14.18;58.95;101400.53;4110858;28;20042;-65
2023/05/26 02:11:03;;;;;;;18.08;8.65;;;;;;;14.21;59.60;101392.72;4112804;28;20043;-65
2023/05/26 02:13:06;;;;;;;16.27;8.95;;;;;;;14.25;58.87;101405.00;4111499;28;20517;-66
2023/05/26 02:15:10;;;;;;;15.80;9.30;;;;;;;14.25;58.88;101397.16;4126013;28;20065;-65
2023/05/26 02:17:17;;;;;;;15.05;8.15;;;;;;;14.25;59.35;101397.16;4127659;28;20046;-65
2023/05/26 02:19:22;;;;;;;15.15;8.50;;;;;;;14.11;59.21;101398.69;4111688;28;20105;-66
2023/05/26 02:21:28;;;;;;;18.30;9.05;;;;;;;14.16;59.29;101398.75;4127683;28;20496;-66
2023/05/26 02:23:31;;;;;;;14.20;8.10;;;;;;;14.19;59.26;101393.56;4127594;28;20591;-65
2023/05/26 02:25:34;;;;;;;15.82;8.48;;;;;;;14.15;59.81;101395.25;4112016;28;20051;-66
2023/05/26 02:27:37;;;;;;;16.13;8.88;;;;;;;14.12;59.56;101397.84;4111102;28;20030;-66
2023/05/26 02:29:40;;;;;;;16.40;8.63;;;;;;;13.98;59.91;101396.75;4111726;28;20082;-65
2023/05/26 02:31:43;;;;;;;16.80;8.35;;;;;;;14.00;59.83;101393.28;4111482;28;20070;-66
2023/05/26 02:33:46;;;;;;;12.38;8.35;;;;;;;14.08;59.61;101394.28;4108285;28;20062;-65
2023/05/26 02:35:50;;;;;;;14.40;7.90;;;;;;;14.03;59.94;101389.81;4093332;29;20039;-65
2023/05/26 02:37:53;;;;;;;15.73;8.50;;;;;;;14.01;59.88;101387.19;4107643;28;20049;-65
2023/05/26 02:39:56;;;;;;;15.52;8.85;;;;;;;13.94;59.61;101388.84;4110685;28;20046;-65
2023/05/26 02:41:58;;;;;;;16.48;8.10;;;;;;;13.91;59.70;101394.00;4112570;28;20050;-66
2023/05/26 02:44:01;;;;;;;14.15;7.40;;;;;;;13.89;60.14;101392.25;4109742;28;20081;-65
2023/05/26 02:46:05;;;;;;;14.82;8.50;;;;;;;13.83;60.08;101387.81;4128011;28;20038;-66
2023/05/26 02:48:08;;;;;;;11.43;8.10;;;;;;;13.82;60.56;101379.94;4125891;28;20512;-66
2023/05/26 02:50:11;;;;;;;18.83;9.00;;;;;;;13.92;60.19;101385.31;4127624;28;20057;-66
2023/05/26 02:52:15;;;;;;;15.48;8.60;;;;;;;13.89;60.07;101387.88;4115666;28;20062;-66
2023/05/26 02:54:18;;;;;;;15.27;8.35;;;;;;;13.91;60.32;101383.56;4111362;28;20038;-66
2023/05/26 02:56:21;;;;;;;18.42;8.75;;;;;;;13.85;60.32;101380.84;4112073;28;20162;-66
2023/05/26 02:58:24;;;;;;;14.13;8.45;;;;;;;13.82;60.62;101386.03;4111387;28;20038;-66
2023/05/26 03:00:28;;;;;;;14.70;8.48;;;;;;;13.88;60.61;101385.25;4117382;28;20315;-66
2023/05/26 03:02:30;;;;;;;14.25;8.82;;;;;;;13.95;59.95;101385.38;4126511;28;20182;-66
2023/05/26 03:04:34;;;;;;;13.27;8.85;;;;;;;13.91;59.99;101383.56;4111225;28;20039;-66
2023/05/26 03:06:37;;;;;;;12.10;7.75;;;;;;;13.80;60.59;101387.75;4126152;28;20049;-66
2023/05/26 03:08:42;;;;;;;15.65;8.27;;;;;;;13.71;60.50;101387.59;4108175;28;20031;-66
2023/05/26 03:10:45;;;;;;;15.68;9.02;;;;;;;13.74;60.50;101388.53;4127630;28;20065;-66
2023/05/26 03:13:07;;;;;;;18.58;9.77;;;;;;;13.73;60.87;101393.72;4091823;29;20135;-66
2023/05/26 03:15:11;;;;;;;13.95;7.43;;;;;;;13.74;60.79;101388.53;4109036;28;20677;-66
2023/05/26 03:17:16;;;;;;;16.50;8.65;;;;;;;13.77;60.92;101378.13;4092315;29;20047;-66
2023/05/26 03:19:20;;;;;;;15.40;8.65;;;;;;;13.75;60.82;101378.94;4109793;28;20039;-66
2023/05/26 03:21:23;;;;;;;14.20;8.00;;;;;;;13.72;60.64;101391.97;4095588;29;20039;-66
2023/05/26 03:23:47;;;;;;;15.35;8.60;;;;;;;13.69;60.81;101379.72;4107948;28;20034;-66
2023/05/26 03:25:51;;;;;;;;;;;;;;;13.58;60.96;101376.94;4111862;28;20049;-66
2023/05/26 03:27:53;;;;;;;11.88;7.72;;;;;;;13.53;61.34;101373.38;4109015;28;19922;-66
2023/05/26 03:29:56;;;;;;;20.27;8.32;;;;;;;13.66;61.06;101384.91;4112783;28;20089;-66
2023/05/26 03:32:00;;;;;;;16.23;9.02;;;;;;;13.79;60.81;101375.53;4109850;28;20047;-66
2023/05/26 03:34:03;;;;;;;14.82;9.27;;;;;;;13.71;61.02;101370.19;4110026;28;20047;-66
2023/05/26 03:36:08;;;;;;;18.95;8.90;;;;;;;13.67;60.83;101375.31;4107381;28;20125;-66
2023/05/26 03:38:12;;;;;;;13.43;9.20;;;;;;;13.63;60.98;101378.75;4110376;28;20069;-66
2023/05/26 03:40:18;;;;;;;15.10;8.93;;;;;;;13.59;61.35;101373.50;4126646;28;20046;-66
2023/05/26 03:42:21;;;;;;;12.32;8.95;;;;;;;13.59;60.79;101380.44;4109084;28;20505;-67
2023/05/26 03:44:24;;;;;;;18.90;9.55;;;;;;;13.48;61.54;101375.03;4126507;28;20038;-66
2023/05/26 03:46:27;;;;;;;19.23;9.32;;;;;;;13.50;61.64;101377.69;4127175;28;20034;-66
2023/05/26 03:48:31;;;;;;;16.40;8.93;;;;;;;13.37;61.83;101387.03;4112224;28;20053;-66
2023/05/26 03:50:34;;;;;;;13.98;8.35;;;;;;;13.37;61.60;101379.19;4111180;28;20509;-66
2023/05/26 03:52:37;;;;;;;15.85;9.20;;;;;;;13.30;61.86;101387.72;4109700;28;20045;-65
2023/05/26 03:54:40;;;;;;;13.55;8.18;;;;;;;13.30;62.20;101403.41;4091244;28;20039;-65
2023/05/26 03:56:49;;;;;;;16.58;9.30;;;;;;;13.29;62.29;101389.47;4112107;28;20043;-65
2023/05/26 03:58:55;;;;;;;15.73;8.13;;;;;;;13.34;62.10;101389.56;4114757;28;20049;-65
2023/05/26 04:00:58;;;;;;;15.32;9.23;;;;;;;13.27;62.36;101397.28;4126405;28;20125;-65
2023/05/26 04:03:01;;;;;;;15.60;8.88;;;;;;;13.35;62.37;101388.75;4113886;28;20100;-65
2023/05/26 04:05:06;;;;;;;15.85;8.95;;;;;;;13.30;62.36;101400.78;4100440;28;20091;-65
2023/05/26 04:07:09;;;;;;;22.55;9.68;;;;;;;13.39;62.06;101393.16;4098337;28;20134;-65
2023/05/26 04:09:12;;;;;;;13.30;8.40;;;;;;;13.26;62.53;101400.75;4123825;28;20141;-65
2023/05/26 04:11:15;;;;;;;20.08;8.77;;;;;;;13.35;62.45;101391.34;4111274;28;20512;-65
2023/05/26 04:13:20;;;;;;;14.50;8.75;;;;;;;13.33;62.33;101391.28;4112405;28;20127;-65
2023/05/26 04:15:23;;;;;;;;;;;;;;;13.36;62.25;101395.69;4114657;28;20046;-65
2023/05/26 04:17:26;;;;;;;17.17;8.27;;;;;;;13.38;62.16;101397.50;4113816;28;19931;-65
2023/05/26 04:19:29;;;;;;;16.42;8.90;;;;;;;13.36;62.26;101401.81;4113205;28;20038;-65
2023/05/26 04:21:32;;;;;;;12.32;7.55;;;;;;;13.39;62.33;101403.59;4113734;28;20039;-65
2023/05/26 04:23:35;;;;;;;18.08;8.90;;;;;;;13.44;62.29;101407.19;4114416;28;20498;-65
2023/05/26 04:25:40;;;;;;;17.20;8.65;;;;;;;13.39;62.49;101395.75;4113891;28;20066;-65
2023/05/26 04:27:58;;;;;;;15.70;8.57;;;;;;;13.48;62.11;101401.16;4114657;28;20175;-65
2023/05/26 04:30:16;;;;;;;12.93;8.23;;;;;;;13.46;62.35;101397.63;4114570;28;20046;-65
2023/05/26 04:32:40;;;;;;;13.93;8.38;;;;;;;13.54;61.86;101401.25;4093972;28;20446;-65
2023/05/26 04:35:01;;;;;;;17.23;8.68;;;;;;;13.64;61.59;101401.41;4114836;28;20079;-65
2023/05/26 04:37:08;;;;;;;15.57;8.70;;;;;;;13.50;62.07;101403.78;4114425;28;20106;-65
2023/05/26 04:39:11;;;;;;;19.02;8.63;;;;;;;13.52;62.09;101396.84;4109096;28;20146;-66
2023/05/26 04:41:15;;;;;;;16.02;8.60;;;;;;;13.60;62.07;101397.88;4119914;28;20493;-65
2023/05/26 04:43:21;;;;;;;21.27;9.55;;;;;;;13.65;61.83;101398.81;4128122;28;20157;-65
2023/05/26 04:45:26;;;;;;;18.50;8.75;;;;;;;13.66;62.01;101413.66;4130096;28;20431;-65
2023/05/26 04:47:32;;;;;;;17.83;9.02;;;;;;;13.68;61.75;101411.06;4128800;28;20037;-65
2023/05/26 04:49:35;;;;;;;17.00;9.00;;;;;;;13.72;61.96;101403.28;4112015;28;20054;-65
2023/05/26 04:51:38;;;;;;;15.70;8.77;;;;;;;13.80;61.89;101408.66;4113331;28;20125;-66
2023/05/26 04:53:42;;;;;;;14.45;8.52;;;;;;;13.82;61.69;101412.16;4112429;28;20031;-65
2023/05/26 04:55:45;;;;;;;22.75;9.15;;;;;;;13.85;61.45;101414.81;4114379;28;20046;-65
2023/05/26 04:57:48;;;;;;;17.30;8.27;;;;;;;13.93;60.84;101402.78;4110994;28;20489;-66
2023/05/26 04:59:51;;;;;;;19.17;8.48;;;;;;;14.09;60.81;101409.13;4112141;28;20098;-66
2023/05/26 05:01:55;;;;;;;14.38;7.15;;;;;;;13.92;60.75;101406.22;4113992;28;20030;-66
2023/05/26 05:04:25;;;;;;;14.43;9.05;;;;;;;13.98;61.03;101413.28;4110293;28;20090;-65
2023/05/26 05:06:33;;;;;;;13.25;8.38;;;;;;;13.96;61.19;101417.63;4125627;28;20546;-66
2023/05/26 05:08:37;;;;;;;18.58;8.85;;;;;;;13.94;61.42;101424.56;4129729;28;20034;-65
2023/05/26 05:10:40;;;;;;;14.48;9.13;;;;;;;14.05;61.36;101422.13;4112559;28;20038;-66
2023/05/26 05:12:44;;;;;;;16.65;9.23;;;;;;;14.09;60.30;101422.19;4128506;28;20031;-66
2023/05/26 05:14:49;;;;;;;17.83;9.23;;;;;;;14.02;61.08;101424.66;4109064;28;20039;-66
2023/05/26 05:16:52;;;;;;;14.43;8.65;;;;;;;14.11;60.71;101430.06;4091229;29;20040;-65
2023/05/26 05:18:57;;;;;;;14.18;8.80;;;;;;;14.23;60.66;101421.50;4126076;28;20121;-66
2023/05/26 05:21:01;;;;;;;16.55;7.68;;;;;;;14.17;60.47;101424.03;4129038;28;20070;-66
2023/05/26 05:23:04;;;;;;;17.15;8.50;;;;;;;14.34;60.25;101417.31;4127280;23;20463;-68
2023/05/26 05:25:08;;;;;;;15.32;8.20;;;;;;;14.43;59.86;101422.66;4128894;28;20459;-66
2023/05/26 05:27:11;;;;;;;20.95;9.35;;;;;;;14.47;59.60;101424.47;4129254;28;20054;-66
2023/05/26 05:29:14;;;;;;;18.45;8.40;;;;;;;14.49;59.62;101425.38;4125885;28;20038;-66
2023/05/26 05:31:19;;;;;;;12.63;8.43;;;;;;;14.52;59.94;101429.75;4129492;28;20463;-66
2023/05/26 05:33:22;;;;;;;13.38;7.60;;;;;;;14.56;59.31;101420.19;4128497;28;20046;-67
2023/05/26 05:35:27;;;;;;;16.23;9.10;;;;;;;14.63;60.01;101429.94;4104552;28;20047;-66
2023/05/26 05:37:30;;;;;;;14.88;8.35;;;;;;;14.71;59.10;101428.31;4116083;28;20146;-68
2023/05/26 05:39:33;;;;;;;18.73;8.23;;;;;;;14.77;59.32;101427.50;4117318;28;20497;-67
2023/05/26 05:41:36;;;;;;;22.67;8.85;;;;;;;14.86;58.61;101426.75;4095169;28;20039;-68
2023/05/26 05:43:39;;;;;;;15.73;7.72;;;;;;;14.80;59.11;101432.78;4134301;28;20042;-68
2023/05/26 05:45:42;;;;;;;16.95;8.73;;;;;;;15.01;58.76;101426.94;4114568;28;20444;-68
2023/05/26 05:47:52;;;;;;;16.65;8.73;;;;;;;15.04;58.11;101431.31;4125348;28;20054;-68
2023/05/26 05:49:55;;;;;;;19.23;9.10;;;;;;;15.05;58.32;101428.69;4127387;28;20488;-68
2023/05/26 05:51:59;;;;;;;19.65;8.55;;;;;;;15.09;58.54;101430.50;4126630;28;20148;-65
2023/05/26 05:54:03;;;;;;;16.52;8.48;;;;;;;15.07;58.25;101433.94;4093620;28;20126;-66
2023/05/26 05:56:06;;;;;;;18.73;10.38;;;;;;;15.15;58.16;101434.94;4124635;28;20145;-67
2023/05/26 05:58:09;;;;;;;16.52;8.88;;;;;;;15.18;57.57;101437.56;4110809;28;20208;-66
2023/05/26 06:00:13;;;;;;;17.77;9.35;;;;;;;15.29;57.42;101427.22;4130544;28;20408;-66
2023/05/26 06:02:16;;;;;;;12.13;8.00;;;;;;;15.25;57.93;101434.16;4128314;28;20499;-68
2023/05/26 06:04:19;;;;;;;20.90;9.55;;;;;;;15.42;57.50;101439.59;4126807;28;20035;-67
2023/05/26 06:06:22;;;;;;;16.73;9.30;;;;;;;15.51;58.09;101433.56;4115163;28;20046;-67
2023/05/26 06:08:27;;;;;;;30.05;9.98;;;;;;;15.56;56.98;101437.09;4115233;28;20050;-67
2023/05/26 06:10:31;;;;;;;21.08;9.57;;;;;;;15.76;57.10;101436.41;4114449;28;20055;-66
2023/05/26 06:12:34;;;;;;;18.00;8.55;;;;;;;15.70;57.42;101439.84;4130576;28;20121;-67
2023/05/26 06:14:38;;;;;;;20.50;9.48;;;;;;;15.81;56.77;101442.59;4131369;28;20047;-68
2023/05/26 06:16:42;;;;;;;19.52;10.10;;;;;;;15.81;56.78;101437.34;4131016;28;20038;-68
2023/05/26 06:18:45;;;;;;;15.77;8.43;;;;;;;15.81;57.00;101448.72;4114968;28;20097;-68
2023/05/26 06:20:48;;;;;;;18.65;9.50;;;;;;;15.89;56.22;101443.53;4114985;28;20050;-68
2023/05/26 06:22:52;;;;;;;18.17;8.73;;;;;;;15.87;56.83;101446.16;4130348;28;20039;-68
2023/05/26 06:24:56;;;;;;;20.55;8.45;;;;;;;16.01;56.57;101450.63;4114816;28;20087;-67
2023/05/26 06:27:00;;;;;;;15.88;8.38;;;;;;;16.21;55.76;101443.75;4115830;28;20050;-68
2023/05/26 06:29:03;;;;;;;18.67;9.02;;;;;;;16.14;56.00;101441.09;4112761;28;20034;-68
2023/05/26 06:31:06;;;;;;;20.42;8.98;;;;;;;16.37;55.09;101439.50;4128864;28;20097;-67
2023/05/26 06:33:16;;;;;;;15.52;8.18;;;;;;;16.37;55.12;101443.88;4116664;28;20042;-68
2023/05/26 06:35:19;;;;;;;15.48;7.88;;;;;;;16.42;54.84;101438.66;4113844;28;20047;-67
2023/05/26 06:37:23;;;;;;;18.88;7.75;;;;;;;16.33;55.48;101442.97;4125715;28;20034;-68
2023/05/26 06:39:26;;;;;;;15.45;8.18;;;;;;;16.53;54.38;101437.84;4129944;28;20456;-67
2023/05/26 06:41:31;;;;;;;17.15;8.65;;;;;;;16.46;55.34;101435.19;4133465;28;20057;-68
2023/05/26 06:43:34;;;;;;;15.15;8.63;;;;;;;16.57;54.84;101436.09;4093024;28;20058;-68
2023/05/26 06:45:39;;;;;;;15.30;8.15;;;;;;;16.62;54.57;101444.88;4105779;28;20107;-67
2023/05/26 06:47:42;;;;;;;12.85;7.40;;;;;;;16.63;54.42;101443.13;4107843;28;20123;-67
2023/05/26 06:49:50;;;;;;;13.48;8.77;;;;;;;16.69;54.08;101446.66;4105675;28;20039;-67
2023/05/26 06:51:53;;;;;;;17.73;8.40;;;;;;;16.71;54.53;101449.31;4092519;28;20323;-67
2023/05/26 06:53:56;;;;;;;17.77;8.90;;;;;;;16.85;53.79;101447.63;4124713;28;20404;-67
2023/05/26 06:55:59;;;;;;;21.55;8.20;;;;;;;16.89;53.84;101446.78;4108718;28;20041;-67
2023/05/26 06:58:04;;;;;;;15.03;8.17;;;;;;;16.87;53.76;101450.25;4114955;28;20496;-68
2023/05/26 07:00:07;;;;;;;;;;;;;;;16.92;53.79;101449.44;4112962;28;20226;-68
2023/05/26 07:02:10;;;;;;;20.30;9.38;;;;;;;16.99;53.79;101449.44;4136531;28;19922;-68
2023/05/26 07:04:13;;;;;;;13.50;7.85;;;;;;;16.92;54.14;101448.53;4115924;28;20082;-67
2023/05/26 07:06:18;;;;;;;18.58;8.68;;;;;;;17.07;53.83;101456.50;4111725;28;20031;-68
2023/05/26 07:08:23;;;;;;;18.27;9.13;;;;;;;17.05;53.65;101445.06;4129336;28;20046;-67
2023/05/26 07:10:26;;;;;;;14.67;9.30;;;;;;;17.21;53.70;101451.25;4123139;28;20129;-67
2023/05/26 07:12:29;;;;;;;17.05;8.63;;;;;;;17.18;53.92;101447.75;4092602;28;20882;-68
2023/05/26 07:14:46;;;;;;;15.73;7.13;;;;;;;17.28;53.25;101450.41;4110778;28;20035;-67
2023/05/26 07:16:50;;;;;;;23.08;8.55;;;;;;;17.32;53.62;101448.66;4109889;28;20046;-67
2023/05/26 07:18:53;;;;;;;21.65;9.40;;;;;;;17.40;52.13;101452.16;4110434;28;20038;-67
2023/05/26 07:20:57;;;;;;;17.33;7.97;;;;;;;17.25;52.71;101450.41;4127243;28;20488;-67
2023/05/26 07:23:00;;;;;;;18.48;9.30;;;;;;;17.44;52.61;101448.69;4109433;28;20459;-67
2023/05/26 07:25:05;;;;;;;18.67;8.30;;;;;;;17.44;53.24;101447.81;4096299;28;20386;-67
2023/05/26 07:27:16;;;;;;;16.55;7.78;;;;;;;17.59;52.42;101458.34;4116179;28;20494;-68
2023/05/26 07:29:22;;;;;;;18.23;8.48;;;;;;;17.65;52.59;101456.59;4113576;28;20096;-68
2023/05/26 07:31:27;;;;;;;22.88;8.77;;;;;;;17.59;52.76;101449.59;4111410;28;20486;-68
2023/05/26 07:33:31;;;;;;;18.95;7.88;;;;;;;17.76;52.22;101454.88;4113122;28;20039;-68
2023/05/26 07:35:33;;;;;;;23.42;8.75;;;;;;;17.78;51.98;101443.47;4113786;28;20047;-67
2023/05/26 07:37:37;;;;;;;15.88;9.10;;;;;;;17.88;51.77;101448.72;4127839;28;20057;-68
2023/05/26 07:39:40;;;;;;;22.83;9.05;;;;;;;17.80;52.36;101449.59;4131628;28;20047;-67
2023/05/26 07:41:43;;;;;;;21.48;9.65;;;;;;;17.84;51.84;101454.84;4109937;28;20067;-68
2023/05/26 07:43:46;;;;;;;13.15;7.40;;;;;;;17.68;52.28;101446.94;4126072;28;20547;-68
2023/05/26 07:45:49;;;;;;;19.20;9.40;;;;;;;17.89;52.26;101451.34;4115422;28;20117;-67
2023/05/26 07:47:53;;;;;;;21.00;8.40;;;;;;;17.93;51.12;101447.00;4128544;28;20034;-68
2023/05/26 07:49:56;;;;;;;24.00;7.75;;;;;;;17.89;51.83;101453.13;4114223;28;20536;-68
2023/05/26 07:51:59;;;;;;;16.42;8.13;;;;;;;18.09;51.60;101443.50;4117713;28;20053;-68
2023/05/26 07:54:02;;;;;;;16.83;7.78;;;;;;;18.09;51.88;101443.50;4112203;28;20448;-68
2023/05/26 07:56:05;;;;;;;15.75;8.18;;;;;;;18.26;51.42;101458.38;4110974;28;20042;-67
2023/05/26 07:58:10;;;;;;;14.70;7.18;;;;;;;18.16;51.30;101446.97;4112749;28;20512;-68
2023/05/26 08:00:14;;;;;;;13.32;7.10;;;;;;;18.20;51.63;101450.50;4119389;28;20044;-68
2023/05/26 08:02:16;;;;;;;11.30;6.63;;;;;;;18.37;51.31;101447.81;4108811;28;20485;-68
2023/05/26 08:04:21;;;;;;;20.13;7.55;;;;;;;18.53;50.80;101452.19;4115216;28;20045;-68
2023/05/26 08:06:23;;;;;;;17.52;8.20;;;;;;;18.56;50.49;101453.91;4118506;28;20382;-68
2023/05/26 08:08:29;;;;;;;18.23;8.68;;;;;;;18.63;49.97;101442.47;4114968;28;20042;-67
2023/05/26 08:10:33;;;;;;;15.55;7.80;;;;;;;18.74;49.87;101453.84;4125340;28;20073;-67
2023/05/26 08:12:36;;;;;;;14.63;6.68;;;;;;;18.63;50.78;101447.75;4122112;28;20539;-67
2023/05/26 08:14:49;;;;;;;16.98;7.10;;;;;;;18.92;49.69;101452.91;4127468;28;20050;-68
2023/05/26 08:16:52;;;;;;;13.18;7.00;;;;;;;18.88;50.15;101452.94;4125799;28;20039;-68
2023/05/26 08:18:55;;;;;;;16.02;8.13;;;;;;;19.02;49.13;101449.34;4114007;28;20046;-68
2023/05/26 08:20:59;;;;;;;19.58;7.53;;;;;;;19.01;49.05;101446.72;4114020;28;20043;-68
2023/05/26 08:23:02;;;;;;;;;;;;;;;19.18;48.62;101444.03;4107433;28;20047;-68
2023/05/26 08:25:06;;;;;;;12.93;6.32;;;;;;;18.97;49.64;101439.75;4109001;28;19922;-68
2023/05/26 08:27:09;;;;;;;14.25;7.32;;;;;;;19.16;49.50;101446.66;4115013;28;20030;-67
2023/05/26 08:29:12;;;;;;;14.77;7.20;;;;;;;19.27;48.29;101443.94;4114401;28;20125;-67
2023/05/26 08:31:15;;;;;;;11.90;6.78;;;;;;;19.27;48.20;101433.41;4113954;28;20062;-68
2023/05/26 08:33:18;;;;;;;14.07;6.97;;;;;;;19.29;48.75;101436.03;4112178;28;20035;-68
2023/05/26 08:35:21;;;;;;;15.10;7.70;;;;;;;19.38;48.89;101441.28;4129553;28;20050;-68
2023/05/26 08:37:25;;;;;;;10.23;5.75;;;;;;;19.52;47.89;101438.53;4111907;28;20376;-68
2023/05/26 08:39:28;;;;;;;16.52;6.95;;;;;;;19.63;48.57;101436.69;4112847;28;20039;-68
2023/05/26 08:41:38;;;;;;;14.18;7.35;;;;;;;19.68;47.88;101439.28;4115899;28;20509;-67
2023/05/26 08:43:46;;;;;;;13.55;7.15;;;;;;;19.77;47.70;101431.31;4116918;28;20042;-69
2023/05/26 08:46:02;;;;;;;12.35;6.93;;;;;;;19.92;47.73;101430.31;4114506;28;20129;-67
2023/05/26 08:48:09;;;;;;;16.13;7.05;;;;;;;20.10;47.06;101441.59;4114712;28;20042;-67
2023/05/26 08:50:13;;;;;;;13.63;7.13;;;;;;;20.08;46.66;101433.69;4116880;28;20043;-67
2023/05/26 08:52:18;;;;;;;14.50;6.95;;;;;;;20.16;46.98;101447.69;4114570;28;20045;-67
2023/05/26 08:54:22;;;;;;;12.43;6.82;;;;;;;20.25;46.20;101440.56;4114479;28;20042;-67
2023/05/26 08:56:25;;;;;;;12.68;6.43;;;;;;;20.14;45.87;101444.19;4115395;28;20045;-67
2023/05/26 08:58:29;;;;;;;12.90;6.75;;;;;;;20.02;46.53;101439.06;4114372;28;20069;-68
2023/05/26 09:00:32;;;;;;;12.85;6.68;;;;;;;20.23;46.47;101438.81;4116423;28;20045;-67
2023/05/26 09:02:38;;;;;;;13.70;7.25;;;;;;;20.12;46.45;101439.81;4115891;28;20536;-68
2023/05/26 09:04:41;;;;;;;13.00;7.22;;;;;;;20.09;46.16;101434.56;4113330;28;20133;-67
2023/05/26 09:06:45;;;;;;;15.75;6.68;;;;;;;20.17;46.16;101443.31;4109700;28;20055;-67
2023/05/26 09:09:09;;;;;;;13.75;6.40;;;;;;;20.28;45.94;101440.53;4117450;28;20054;-68
2023/05/26 09:11:24;;;;;;;17.15;7.05;;;;;;;20.38;46.24;101442.19;4116638;28;20050;-67
2023/05/26 09:13:32;;;;;;;12.75;5.88;;;;;;;20.50;45.89;101435.88;4109678;28;20038;-68
2023/05/26 09:15:36;;;;;;;14.20;6.53;;;;;;;20.58;45.85;101429.63;4114712;28;20047;-67
2023/05/26 09:17:42;;;;;;;16.05;6.80;;;;;;;20.81;44.63;101439.09;4114893;28;20034;-67
2023/05/26 09:19:46;;;;;;;13.02;5.50;;;;;;;20.64;45.56;101439.25;4117823;28;20125;-68
2023/05/26 09:21:50;;;;;;;12.52;6.90;;;;;;;20.77;45.50;101442.66;4116403;28;20409;-68
2023/05/26 09:23:55;;;;;;;14.13;6.40;;;;;;;20.90;44.56;101444.25;4118233;28;20039;-68
2023/05/26 09:25:58;;;;;;;11.65;6.65;;;;;;;20.92;44.65;101439.84;4118031;28;20070;-67
2023/05/26 09:28:04;;;;;;;10.77;6.25;;;;;;;20.77;45.31;101432.09;4113693;28;20428;-68
2023/05/26 09:30:07;;;;;;;15.38;6.88;;;;;;;20.86;45.28;101444.31;4110664;28;20047;-68
2023/05/26 09:32:15;;;;;;;13.00;5.97;;;;;;;21.04;44.92;101436.16;4119209;28;20533;-67
2023/05/26 09:34:21;;;;;;;11.82;6.22;;;;;;;21.16;44.97;101432.44;4109711;28;20043;-68
2023/05/26 09:36:26;;;;;;;15.07;7.00;;;;;;;21.34;44.20;101438.38;4115686;28;20492;-67